createdAt,value
2022-09-15T00:02:07.042Z,81.18
2022-09-15T00:04:35.677Z,81.02
2022-09-15T00:07:04.220Z,80.93
2022-09-15T00:09:32.805Z,81.20
2022-09-15T00:12:01.044Z,80.99
2022-09-15T00:14:29.744Z,81.12
2022-09-15T00:16:59.938Z,80.76
2022-09-15T00:19:28.673Z,80.64
2022-09-15T00:21:57.615Z,80.49
2022-09-15T00:24:26.127Z,80.49
2022-09-15T00:26:54.675Z,80.34
2022-09-15T00:35:26.732Z,80.34
2022-09-15T00:37:55.393Z,80.39
2022-09-15T00:40:24.679Z,80.62
2022-09-15T00:42:53.374Z,81.03
2022-09-15T00:45:21.517Z,81.22
2022-09-15T00:47:50.449Z,81.15
2022-09-15T00:50:20.462Z,81.37
2022-09-15T00:52:52.031Z,81.24
2022-09-15T00:55:23.273Z,81.50
2022-09-15T00:57:54.379Z,81.16
2022-09-15T01:00:23.967Z,81.39
2022-09-15T01:02:52.638Z,80.98
2022-09-15T01:05:22.438Z,81.61
2022-09-15T01:07:55.036Z,82.03
2022-09-15T01:10:27.145Z,82.10
2022-09-15T01:12:56.422Z,82.33
2022-09-15T01:15:26.778Z,83.09
2022-09-15T01:18:04.171Z,83.26
2022-09-15T01:20:47.933Z,83.39
2022-09-15T01:23:31.712Z,83.71
2022-09-15T01:26:17.479Z,83.58
2022-09-15T01:29:04.301Z,83.79
2022-09-15T01:31:36.831Z,83.55
2022-09-15T01:34:07.896Z,84.00
2022-09-15T01:39:27.256Z,84.27
2022-09-15T01:41:57.307Z,84.09
2022-09-15T01:44:27.694Z,84.12
2022-09-15T01:46:59.629Z,84.83
2022-09-15T01:49:30.326Z,84.68
2022-09-15T01:51:59.051Z,84.63
2022-09-15T01:54:31.553Z,84.63
2022-09-15T01:57:00.826Z,84.57
2022-09-15T01:59:30.726Z,84.35
2022-09-15T02:02:03.733Z,84.64
2022-09-15T02:04:36.876Z,85.12
2022-09-15T02:07:12.283Z,85.04
2022-09-15T02:09:48.910Z,85.05
2022-09-15T02:12:20.507Z,84.92
2022-09-15T02:14:54.429Z,84.75
2022-09-15T02:17:27.196Z,84.22
2022-09-15T02:19:58.019Z,84.47
2022-09-15T02:22:28.579Z,85.06
2022-09-15T02:24:59.999Z,85.00
2022-09-15T02:27:30.649Z,85.02
2022-09-15T02:30:01.827Z,84.87
2022-09-15T02:32:36.326Z,84.80
2022-09-15T02:35:08.114Z,85.05
2022-09-15T02:37:40.063Z,85.28
2022-09-15T02:40:09.383Z,85.10
2022-09-15T02:42:39.492Z,85.18
2022-09-15T02:45:08.780Z,85.19
2022-09-15T02:47:39.563Z,85.15
2022-09-15T02:50:09.363Z,85.16
2022-09-15T02:52:38.060Z,84.85
2022-09-15T02:55:06.719Z,84.84
2022-09-15T02:57:35.175Z,84.75
2022-09-15T03:00:17.012Z,84.98
2022-09-15T03:02:50.185Z,84.93
2022-09-15T03:05:19.371Z,84.98
2022-09-15T03:07:48.494Z,85.11
2022-09-15T03:10:17.219Z,85.23
2022-09-15T03:12:46.931Z,85.13
2022-09-15T03:15:16.498Z,85.30
2022-09-15T03:17:47.835Z,85.65
2022-09-15T03:29:00.253Z,85.81
2022-09-15T03:34:37.693Z,85.59
2022-09-15T03:37:08.798Z,85.82
2022-09-15T03:39:38.226Z,85.70
2022-09-15T03:42:07.808Z,85.67
2022-09-15T03:44:36.508Z,85.60
2022-09-15T03:47:05.376Z,85.45
2022-09-15T03:49:35.671Z,85.45
2022-09-15T03:52:03.940Z,85.20
2022-09-15T03:54:35.728Z,85.50
2022-09-15T03:57:04.562Z,85.43
2022-09-15T03:59:32.664Z,85.89
2022-09-15T04:02:01.272Z,85.83
2022-09-15T04:04:29.956Z,85.47
2022-09-15T04:06:58.685Z,85.30
2022-09-15T04:09:28.079Z,85.15
2022-09-15T04:11:57.933Z,85.61
2022-09-15T04:14:26.884Z,85.43
2022-09-15T04:16:57.615Z,85.34
2022-09-15T04:19:26.390Z,85.15
2022-09-15T04:21:55.306Z,85.56
2022-09-15T04:24:24.539Z,85.73
2022-09-15T04:29:54.455Z,85.84
2022-09-15T04:32:23.847Z,85.60
2022-09-15T04:34:54.999Z,86.30
2022-09-15T04:37:23.922Z,85.98
2022-09-15T04:39:52.861Z,86.05
2022-09-15T04:42:22.344Z,85.78
2022-09-15T04:44:50.941Z,85.73
2022-09-15T04:47:21.223Z,85.65
2022-09-15T04:49:58.319Z,85.66
2022-09-15T04:52:27.236Z,85.58
2022-09-15T04:54:56.083Z,85.49
2022-09-15T04:57:24.476Z,85.68
2022-09-15T04:59:53.013Z,85.58
2022-09-15T05:02:22.781Z,85.72
2022-09-15T05:04:52.160Z,85.79
2022-09-15T05:15:50.954Z,86.15
2022-09-15T05:24:52.839Z,86.29
2022-09-15T05:33:54.223Z,85.86
2022-09-15T05:36:38.801Z,85.95
2022-09-15T05:46:07.626Z,86.26
2022-09-15T05:48:46.396Z,85.90
2022-09-15T05:54:08.615Z,85.88
2022-09-15T05:56:49.075Z,85.26
2022-09-15T05:59:19.037Z,85.75
2022-09-15T06:01:55.182Z,85.85
2022-09-15T06:04:26.381Z,85.62
2022-09-15T06:06:56.639Z,85.96
2022-09-15T06:09:25.506Z,85.69
2022-09-15T06:11:53.733Z,85.26
2022-09-15T06:14:22.211Z,85.53
2022-09-15T06:16:54.420Z,86.15
2022-09-15T06:19:25.821Z,85.86
2022-09-15T06:21:54.830Z,85.86
2022-09-15T06:30:23.176Z,85.52
2022-09-15T06:33:09.121Z,85.95
2022-09-15T06:35:39.236Z,85.70
2022-09-15T06:38:08.336Z,85.55
2022-09-15T06:40:36.501Z,85.13
2022-09-15T06:43:05.109Z,84.79
2022-09-15T06:45:33.248Z,85.23
2022-09-15T06:48:23.463Z,84.79
2022-09-15T06:50:56.672Z,84.86
2022-09-15T06:53:25.456Z,84.86
2022-09-15T06:55:53.755Z,85.24
2022-09-15T06:58:22.465Z,85.01
2022-09-15T07:00:50.886Z,84.88
2022-09-15T07:03:20.550Z,85.21
2022-09-15T07:05:48.952Z,84.94
2022-09-15T07:08:17.475Z,84.66
2022-09-15T07:10:46.765Z,84.57
2022-09-15T07:13:14.797Z,84.48
2022-09-15T07:15:43.918Z,84.61
2022-09-15T07:18:15.420Z,84.04
2022-09-15T07:20:44.914Z,84.53
2022-09-15T07:23:12.949Z,84.51
2022-09-15T07:25:45.234Z,84.34
2022-09-15T07:28:13.597Z,83.97
2022-09-15T07:30:41.864Z,83.54
2022-09-15T07:33:10.565Z,84.12
2022-09-15T07:35:42.403Z,83.76
2022-09-15T07:38:12.325Z,83.55
2022-09-15T07:40:40.576Z,83.65
2022-09-15T07:43:08.629Z,83.54
2022-09-15T07:45:36.627Z,83.17
2022-09-15T07:48:04.909Z,83.54
2022-09-15T07:50:33.128Z,83.15
2022-09-15T07:53:01.250Z,82.24
2022-09-15T07:55:31.475Z,82.85
2022-09-15T07:57:59.865Z,82.41
2022-09-15T08:00:28.183Z,82.81
2022-09-15T08:02:56.473Z,82.66
2022-09-15T08:05:27.330Z,83.16
2022-09-15T08:07:55.416Z,82.96
2022-09-15T08:10:23.883Z,82.84
2022-09-15T08:12:53.652Z,82.46
2022-09-15T08:15:21.950Z,81.86
2022-09-15T08:17:50.027Z,82.10
2022-09-15T08:20:18.535Z,82.29
2022-09-15T08:22:48.188Z,81.53
2022-09-15T08:25:16.276Z,82.10
2022-09-15T08:27:44.277Z,81.99
2022-09-15T08:30:14.741Z,82.21
2022-09-15T08:32:42.946Z,82.02
2022-09-15T08:35:11.093Z,81.16
2022-09-15T08:37:40.164Z,80.86
2022-09-15T08:40:09.435Z,81.49
2022-09-15T08:42:44.845Z,81.03
2022-09-15T08:45:19.910Z,81.68
2022-09-15T08:47:49.451Z,81.79
2022-09-15T08:50:24.098Z,81.96
2022-09-15T08:52:55.835Z,81.67
2022-09-15T08:55:35.620Z,81.72
2022-09-15T08:58:04.042Z,81.01
2022-09-15T09:00:34.032Z,81.47
2022-09-15T09:03:14.100Z,82.02
2022-09-15T09:05:47.465Z,81.41
2022-09-15T09:08:27.010Z,81.37
2022-09-15T09:10:56.706Z,79.62
2022-09-15T09:13:34.692Z,79.66
2022-09-15T09:16:09.954Z,80.68
2022-09-15T09:18:50.463Z,80.57
2022-09-15T09:21:23.792Z,80.34
2022-09-15T09:23:56.352Z,79.85
2022-09-15T09:26:24.336Z,79.79
2022-09-15T09:28:56.829Z,79.87
2022-09-15T09:31:27.072Z,80.14
2022-09-15T09:33:58.114Z,80.27
2022-09-15T09:36:27.334Z,80.36
2022-09-15T09:38:57.253Z,79.85
2022-09-15T09:41:35.826Z,79.87
2022-09-15T09:44:05.493Z,79.73
2022-09-15T09:46:35.289Z,78.89
2022-09-15T09:49:05.623Z,78.26
2022-09-15T09:51:35.497Z,79.08
2022-09-15T09:54:09.357Z,79.02
2022-09-15T09:56:37.609Z,78.46
2022-09-15T09:59:05.888Z,77.88
2022-09-15T10:01:35.583Z,77.35
2022-09-15T10:04:14.632Z,77.53
2022-09-15T10:06:43.109Z,77.76
2022-09-15T10:09:14.813Z,77.25
2022-09-15T10:11:45.153Z,77.56
2022-09-15T10:14:24.193Z,77.00
2022-09-15T10:17:03.357Z,76.80
2022-09-15T10:19:33.110Z,77.01
2022-09-15T10:22:07.791Z,76.14
2022-09-15T10:24:36.674Z,77.15
2022-09-15T10:27:18.884Z,76.54
2022-09-15T10:29:47.514Z,77.19
2022-09-15T10:32:27.681Z,76.84
2022-09-15T10:35:00.437Z,77.69
2022-09-15T10:37:31.119Z,78.00
2022-09-15T10:40:00.379Z,78.08
2022-09-15T10:42:51.199Z,78.37
2022-09-15T10:48:21.523Z,78.03
2022-09-15T10:50:55.633Z,78.20
2022-09-15T10:53:28.297Z,77.27
2022-09-15T10:56:00.903Z,77.34
2022-09-15T10:58:34.050Z,77.52
2022-09-15T11:01:05.059Z,77.72
2022-09-15T11:03:54.126Z,77.22
2022-09-15T11:06:30.048Z,78.26
2022-09-15T11:09:07.060Z,78.33
2022-09-15T11:11:41.861Z,77.87
2022-09-15T11:14:19.777Z,78.19
2022-09-15T11:16:55.617Z,78.07
2022-09-15T11:19:32.675Z,78.40
2022-09-15T11:22:04.796Z,78.28
2022-09-15T11:24:41.797Z,78.50
2022-09-15T11:27:14.734Z,78.56
2022-09-15T11:29:53.951Z,78.34
2022-09-15T11:32:26.010Z,78.08
2022-09-15T11:34:57.340Z,78.57
2022-09-15T11:37:31.701Z,78.59
2022-09-15T11:40:04.414Z,78.91
2022-09-15T11:42:36.684Z,78.78
2022-09-15T11:45:05.461Z,78.61
2022-09-15T11:47:37.982Z,78.53
2022-09-15T11:50:13.697Z,77.97
2022-09-15T11:55:32.776Z,77.63
2022-09-15T11:58:09.038Z,77.62
2022-09-15T12:00:40.577Z,77.34
2022-09-15T12:03:18.104Z,76.48
2022-09-15T12:05:54.152Z,76.21
2022-09-15T12:08:29.398Z,76.39
2022-09-15T12:11:01.283Z,75.94
2022-09-15T12:13:30.633Z,75.92
2022-09-15T12:15:59.845Z,74.82
2022-09-15T12:18:41.771Z,74.58
2022-09-15T12:21:17.036Z,73.28
2022-09-15T12:23:47.083Z,73.81
2022-09-15T12:26:19.280Z,73.65
2022-09-15T12:28:56.114Z,72.40
2022-09-15T12:31:29.405Z,72.80
2022-09-15T12:33:58.841Z,71.28
2022-09-15T12:36:48.496Z,71.32
2022-09-15T12:39:31.952Z,72.85
2022-09-15T12:42:09.656Z,72.74
2022-09-15T12:44:39.337Z,72.17
2022-09-15T12:47:09.467Z,72.00
2022-09-15T12:49:43.721Z,71.81
2022-09-15T12:52:12.852Z,71.70
2022-09-15T12:54:43.568Z,71.77
2022-09-15T12:57:20.692Z,69.39
2022-09-15T12:59:49.078Z,71.01
2022-09-15T13:02:32.854Z,70.69
2022-09-15T13:05:01.291Z,70.97
2022-09-15T13:07:35.878Z,70.26
2022-09-15T13:10:27.269Z,68.84
2022-09-15T13:13:05.698Z,66.10
2022-09-15T13:15:35.256Z,68.79
2022-09-15T13:18:07.232Z,67.11
2022-09-15T13:20:38.235Z,65.33
2022-09-15T13:23:10.009Z,66.16
2022-09-15T13:25:42.373Z,64.34
2022-09-15T13:28:13.180Z,66.72
2022-09-15T13:30:46.282Z,66.36
2022-09-15T13:33:25.252Z,66.21
2022-09-15T13:36:00.478Z,66.49
2022-09-15T13:38:41.069Z,67.87
2022-09-15T13:41:40.367Z,67.82
2022-09-15T13:44:29.232Z,67.44
2022-09-15T13:47:16.673Z,67.35
2022-09-15T13:49:48.637Z,67.61
2022-09-15T13:52:25.673Z,67.69
2022-09-15T13:55:19.718Z,67.21
2022-09-15T14:00:45.629Z,65.21
2022-09-15T14:03:18.451Z,64.19
2022-09-15T14:05:47.027Z,62.41
2022-09-15T14:08:17.273Z,62.43
2022-09-15T14:10:48.113Z,62.53
2022-09-15T14:13:17.637Z,62.28
2022-09-15T14:15:59.219Z,61.74
2022-09-15T14:18:29.215Z,61.95
2022-09-15T14:21:02.566Z,61.67
2022-09-15T14:23:30.902Z,62.12
2022-09-15T14:26:00.585Z,62.46
2022-09-15T14:28:31.628Z,62.87
2022-09-15T14:31:01.344Z,62.54
2022-09-15T14:33:37.977Z,60.57
2022-09-15T14:36:16.442Z,57.33
2022-09-15T14:38:44.746Z,53.74
2022-09-15T14:41:20.072Z,48.92
2022-09-15T14:43:48.793Z,49.39
2022-09-15T14:46:19.393Z,49.52
2022-09-15T14:48:49.526Z,49.20
2022-09-15T14:51:21.242Z,47.01
2022-09-15T14:53:51.255Z,45.70
2022-09-15T14:56:20.712Z,47.32
2022-09-15T14:58:52.681Z,45.43
2022-09-15T15:01:24.694Z,44.78
2022-09-15T15:03:58.117Z,43.94
2022-09-15T15:06:30.838Z,45.50
2022-09-15T15:09:03.142Z,46.76
2022-09-15T15:11:32.913Z,46.57
2022-09-15T15:14:01.723Z,46.92
2022-09-15T15:16:31.515Z,47.10
2022-09-15T15:19:01.914Z,47.13
2022-09-15T15:21:48.937Z,47.50
2022-09-15T15:24:19.011Z,47.89
2022-09-15T15:26:47.841Z,49.43
2022-09-15T15:29:35.143Z,50.66
2022-09-15T15:32:05.710Z,51.93
2022-09-15T15:34:35.586Z,53.07
2022-09-15T15:37:05.056Z,53.77
2022-09-15T15:39:33.438Z,54.98
2022-09-15T15:42:03.574Z,56.22
2022-09-15T15:44:32.961Z,56.82
2022-09-15T15:47:02.950Z,57.37
2022-09-15T15:49:32.757Z,58.53
2022-09-15T15:52:02.931Z,60.43
2022-09-15T15:54:31.475Z,61.01
2022-09-15T15:57:05.971Z,61.64
2022-09-15T15:59:33.964Z,62.18
2022-09-15T16:02:02.466Z,62.36
2022-09-15T16:04:30.596Z,62.44
2022-09-15T16:06:59.072Z,63.22
2022-09-15T16:09:29.432Z,62.84
2022-09-15T16:14:30.718Z,63.05
2022-09-15T16:16:59.216Z,63.47
2022-09-15T16:19:27.710Z,64.28
2022-09-15T16:21:56.427Z,64.32
2022-09-15T16:24:25.080Z,65.58
2022-09-15T16:26:54.793Z,65.62
2022-09-15T16:29:28.013Z,66.34
2022-09-15T16:31:57.190Z,67.17
2022-09-15T16:34:25.388Z,66.70
2022-09-15T16:36:53.746Z,65.98
2022-09-15T16:39:22.167Z,65.90
2022-09-15T16:41:50.528Z,66.64
2022-09-15T16:44:22.106Z,66.52
2022-09-15T16:46:51.260Z,66.41
2022-09-15T16:49:19.465Z,66.32
2022-09-15T16:51:47.760Z,66.29
2022-09-15T16:54:18.072Z,66.25
2022-09-15T16:56:46.865Z,67.03
2022-09-15T16:59:15.425Z,66.97
2022-09-15T17:01:45.392Z,67.79
2022-09-15T17:04:17.695Z,67.81
2022-09-15T17:06:46.075Z,67.75
2022-09-15T17:09:15.908Z,67.34
2022-09-15T17:11:44.616Z,67.15
2022-09-15T17:14:18.725Z,66.83
2022-09-15T17:16:52.908Z,66.80
2022-09-15T17:19:21.240Z,67.03
2022-09-15T17:21:50.364Z,66.87
2022-09-15T17:24:18.648Z,66.79
2022-09-15T17:26:46.935Z,67.14
2022-09-15T17:29:15.063Z,67.93
2022-09-15T17:31:43.747Z,68.19
2022-09-15T17:34:21.029Z,68.30
2022-09-15T17:37:02.674Z,68.19
2022-09-15T17:39:47.907Z,68.24
2022-09-15T17:42:34.765Z,68.34
2022-09-15T17:45:07.027Z,68.39
2022-09-15T17:47:38.427Z,68.68
2022-09-15T17:50:08.474Z,70.30
2022-09-15T17:52:38.873Z,69.67
2022-09-15T17:55:12.900Z,69.71
2022-09-15T17:57:41.170Z,69.89
2022-09-15T18:00:10.608Z,69.81
2022-09-15T18:02:39.391Z,69.89
2022-09-15T18:05:17.428Z,69.95
2022-09-15T18:07:46.990Z,69.96
2022-09-15T18:10:15.570Z,70.44
2022-09-15T18:12:46.889Z,70.78
2022-09-15T18:15:19.016Z,71.57
2022-09-15T18:17:48.940Z,71.56
2022-09-15T18:20:20.139Z,71.39
2022-09-15T18:22:49.150Z,72.42
2022-09-15T18:25:19.045Z,72.20
2022-09-15T18:27:49.484Z,71.78
2022-09-15T18:30:18.223Z,71.81
2022-09-15T18:32:46.364Z,71.79
2022-09-15T18:35:18.376Z,71.95
2022-09-15T18:37:49.267Z,72.35
2022-09-15T18:40:18.338Z,72.93
2022-09-15T18:42:47.237Z,73.17
2022-09-15T18:45:16.456Z,74.41
2022-09-15T18:47:44.695Z,73.82
2022-09-15T18:50:13.629Z,73.42
2022-09-15T18:52:42.311Z,74.15
2022-09-15T18:55:15.632Z,73.88
2022-09-15T18:57:45.069Z,74.13
2022-09-15T19:00:14.750Z,74.20
2022-09-15T19:02:53.366Z,74.49
2022-09-15T19:05:21.751Z,75.28
2022-09-15T19:07:50.144Z,74.50
2022-09-15T19:10:19.968Z,74.28
2022-09-15T19:12:48.797Z,74.27
2022-09-15T19:15:17.143Z,74.38
2022-09-15T19:17:45.738Z,74.45
2022-09-15T19:20:15.142Z,75.36
2022-09-15T19:22:43.631Z,75.50
2022-09-15T19:25:12.590Z,76.10
2022-09-15T19:27:43.216Z,75.72
2022-09-15T19:30:12.170Z,75.15
2022-09-15T19:32:40.962Z,75.79
2022-09-15T19:35:09.780Z,75.75
2022-09-15T19:37:39.314Z,75.46
2022-09-15T19:40:10.166Z,75.59
2022-09-15T19:42:38.801Z,76.10
2022-09-15T19:45:10.660Z,75.48
2022-09-15T19:47:38.844Z,75.76
2022-09-15T19:50:08.128Z,76.55
2022-09-15T19:52:36.525Z,76.52
2022-09-15T19:55:05.377Z,76.80
2022-09-15T19:57:33.563Z,76.30
2022-09-15T20:00:02.148Z,76.34
2022-09-15T20:02:33.407Z,76.53
2022-09-15T20:05:01.978Z,76.40
2022-09-15T20:07:32.328Z,77.03
2022-09-15T20:10:03.143Z,77.49
2022-09-15T20:12:32.138Z,77.72
2022-09-15T20:15:00.398Z,77.67
2022-09-15T20:17:28.661Z,77.64
2022-09-15T20:19:58.686Z,76.93
2022-09-15T20:22:29.149Z,76.92
2022-09-15T20:24:57.601Z,76.65
2022-09-15T20:27:25.915Z,76.45
2022-09-15T20:29:54.090Z,76.49
2022-09-15T20:32:29.572Z,76.37
2022-09-15T20:35:06.066Z,76.26
2022-09-15T20:58:29.861Z,76.92
2022-09-15T21:01:11.857Z,76.84
2022-09-15T21:09:27.299Z,77.51
2022-09-15T21:12:01.450Z,77.67
2022-09-15T21:21:02.317Z,77.69
2022-09-15T21:23:37.480Z,77.43
2022-09-15T21:40:59.065Z,77.56
2022-09-15T21:43:36.461Z,77.66
2022-09-15T21:46:21.481Z,78.30
2022-09-15T22:25:06.380Z,78.86
2022-09-15T22:33:51.073Z,78.73
2022-09-15T22:36:29.750Z,78.16
2022-09-15T22:39:12.266Z,77.85
2022-09-15T22:48:24.654Z,79.48
2022-09-15T22:56:47.422Z,79.47
2022-09-15T22:59:17.254Z,79.15
2022-09-15T23:01:46.328Z,78.71
2022-09-15T23:04:16.503Z,78.80
2022-09-15T23:06:45.774Z,79.17
2022-09-15T23:09:16.346Z,79.12
2022-09-15T23:11:55.440Z,78.93
2022-09-15T23:14:29.689Z,78.97
2022-09-15T23:17:09.236Z,79.06
2022-09-15T23:19:45.355Z,79.26
2022-09-15T23:22:15.809Z,79.29
2022-09-15T23:24:49.017Z,79.49
2022-09-15T23:27:22.909Z,79.63
2022-09-15T23:29:57.721Z,79.23
2022-09-15T23:32:44.631Z,79.30
2022-09-15T23:38:14.161Z,79.41
2022-09-15T23:40:46.702Z,79.14
2022-09-15T23:55:57.727Z,81.20
2022-09-15T23:58:52.037Z,81.05
